Keytesville, Missouri
Current Conditions -  °F | °C
As of 2:15 PM on Friday 28 Nov 2014 (Local Time) from KMHL Reporting Station
Clear Clear  
Wind Chill: 57°   Ceiling: Unl
Heat Index: 57°   Visibility: 10mi
Dew Point: 36°   Wind: 15mph
Humidity: 44%   Direction: 200°SSW
Pressure: 29.89"   Gusts: 20mph
Location:  39.43°N, 92.94°W
Report Text: KMHL 282015Z AUTO 20013G17KT 10SM CLR 14/02 A2989 RMK AO2
Loading
Personal Weather Stations






























Interactive Weather Map New forecast layout! Learn more

10-Day Weather Forecast

Advertisements
Track Severe Weather on mobile